sensor_id;sensor_type;location;lat;lon;timestamp;P1;durP1;ratioP1;P2;durP2;ratioP2
48849;SDS011;63210;53.370;6.770;2023-04-24T00:01:27;5.85;;;5.35;;
48849;SDS011;63210;53.370;6.770;2023-04-24T00:03:54;7.68;;;5.63;;
48849;SDS011;63210;53.370;6.770;2023-04-24T00:06:21;6.45;;;5.85;;
48849;SDS011;63210;53.370;6.770;2023-04-24T00:08:48;6.43;;;5.32;;
48849;SDS011;63210;53.370;6.770;2023-04-24T00:11:13;6.85;;;4.97;;
48849;SDS011;63210;53.370;6.770;2023-04-24T00:13:39;7.03;;;5.93;;
48849;SDS011;63210;53.370;6.770;2023-04-24T00:16:04;9.07;;;6.00;;
48849;SDS011;63210;53.370;6.770;2023-04-24T00:18:30;7.47;;;5.88;;
48849;SDS011;63210;53.370;6.770;2023-04-24T00:20:55;7.22;;;6.40;;
48849;SDS011;63210;53.370;6.770;2023-04-24T00:23:21;7.22;;;6.53;;
48849;SDS011;63210;53.370;6.770;2023-04-24T00:25:46;7.38;;;6.68;;
48849;SDS011;63210;53.370;6.770;2023-04-24T00:28:11;8.43;;;6.07;;
48849;SDS011;63210;53.370;6.770;2023-04-24T00:30:36;9.43;;;7.28;;
48849;SDS011;63210;53.370;6.770;2023-04-24T00:33:02;7.80;;;6.63;;
48849;SDS011;63210;53.370;6.770;2023-04-24T00:35:27;7.90;;;6.63;;
48849;SDS011;63210;53.370;6.770;2023-04-24T00:37:53;7.90;;;6.65;;
48849;SDS011;63210;53.370;6.770;2023-04-24T00:40:18;7.03;;;6.32;;
48849;SDS011;63210;53.370;6.770;2023-04-24T00:42:43;10.15;;;6.78;;
48849;SDS011;63210;53.370;6.770;2023-04-24T00:45:09;7.07;;;5.93;;
48849;SDS011;63210;53.370;6.770;2023-04-24T00:47:34;9.10;;;6.35;;
48849;SDS011;63210;53.370;6.770;2023-04-24T00:50:03;6.30;;;5.10;;
48849;SDS011;63210;53.370;6.770;2023-04-24T00:52:28;6.22;;;5.63;;
48849;SDS011;63210;53.370;6.770;2023-04-24T00:54:56;6.72;;;5.70;;
48849;SDS011;63210;53.370;6.770;2023-04-24T00:57:21;5.72;;;5.13;;
48849;SDS011;63210;53.370;6.770;2023-04-24T00:59:48;5.60;;;5.00;;
48849;SDS011;63210;53.370;6.770;2023-04-24T01:02:14;5.35;;;4.85;;
48849;SDS011;63210;53.370;6.770;2023-04-24T01:04:40;5.55;;;5.05;;
48849;SDS011;63210;53.370;6.770;2023-04-24T01:07:06;4.75;;;4.30;;
48849;SDS011;63210;53.370;6.770;2023-04-24T01:09:40;7.65;;;4.20;;
48849;SDS011;63210;53.370;6.770;2023-04-24T01:12:06;3.43;;;3.13;;
48849;SDS011;63210;53.370;6.770;2023-04-24T01:14:32;3.13;;;2.67;;
48849;SDS011;63210;53.370;6.770;2023-04-24T01:16:58;3.88;;;2.35;;
48849;SDS011;63210;53.370;6.770;2023-04-24T01:19:23;3.00;;;2.25;;
48849;SDS011;63210;53.370;6.770;2023-04-24T01:21:48;3.00;;;2.53;;
48849;SDS011;63210;53.370;6.770;2023-04-24T01:24:15;2.92;;;2.65;;
48849;SDS011;63210;53.370;6.770;2023-04-24T01:26:41;2.65;;;2.45;;
48849;SDS011;63210;53.370;6.770;2023-04-24T01:29:06;3.55;;;2.10;;
48849;SDS011;63210;53.370;6.770;2023-04-24T01:31:31;2.15;;;2.00;;
48849;SDS011;63210;53.370;6.770;2023-04-24T01:33:58;2.20;;;2.00;;
48849;SDS011;63210;53.370;6.770;2023-04-24T01:36:23;5.30;;;2.10;;
48849;SDS011;63210;53.370;6.770;2023-04-24T01:38:50;2.30;;;2.10;;
48849;SDS011;63210;53.370;6.770;2023-04-24T01:41:15;1.90;;;1.80;;
48849;SDS011;63210;53.370;6.770;2023-04-24T01:43:41;2.60;;;2.17;;
48849;SDS011;63210;53.370;6.770;2023-04-24T01:46:06;2.60;;;1.90;;
48849;SDS011;63210;53.370;6.770;2023-04-24T01:48:31;2.67;;;1.85;;
48849;SDS011;63210;53.370;6.770;2023-04-24T01:50:57;2.40;;;2.05;;
48849;SDS011;63210;53.370;6.770;2023-04-24T01:53:22;4.43;;;2.10;;
48849;SDS011;63210;53.370;6.770;2023-04-24T01:55:47;3.00;;;2.35;;
48849;SDS011;63210;53.370;6.770;2023-04-24T01:58:13;3.50;;;2.22;;
48849;SDS011;63210;53.370;6.770;2023-04-24T02:00:38;2.60;;;2.40;;
48849;SDS011;63210;53.370;6.770;2023-04-24T02:03:03;3.50;;;2.50;;
48849;SDS011;63210;53.370;6.770;2023-04-24T02:05:29;2.88;;;2.67;;
48849;SDS011;63210;53.370;6.770;2023-04-24T02:07:54;2.63;;;2.42;;
48849;SDS011;63210;53.370;6.770;2023-04-24T02:10:19;5.10;;;3.15;;
48849;SDS011;63210;53.370;6.770;2023-04-24T02:12:45;3.45;;;3.15;;
48849;SDS011;63210;53.370;6.770;2023-04-24T02:15:10;3.20;;;2.90;;
48849;SDS011;63210;53.370;6.770;2023-04-24T02:17:35;3.85;;;3.05;;
48849;SDS011;63210;53.370;6.770;2023-04-24T02:20:01;4.85;;;3.33;;
48849;SDS011;63210;53.370;6.770;2023-04-24T02:22:26;3.75;;;2.97;;
48849;SDS011;63210;53.370;6.770;2023-04-24T02:24:51;3.65;;;3.35;;
48849;SDS011;63210;53.370;6.770;2023-04-24T02:27:17;3.17;;;2.88;;
48849;SDS011;63210;53.370;6.770;2023-04-24T02:29:42;3.95;;;3.55;;
48849;SDS011;63210;53.370;6.770;2023-04-24T02:32:07;3.60;;;3.30;;
48849;SDS011;63210;53.370;6.770;2023-04-24T02:34:36;5.00;;;3.63;;
48849;SDS011;63210;53.370;6.770;2023-04-24T02:37:02;4.05;;;3.35;;
48849;SDS011;63210;53.370;6.770;2023-04-24T02:39:27;3.80;;;3.50;;
48849;SDS011;63210;53.370;6.770;2023-04-24T02:41:52;4.20;;;3.90;;
48849;SDS011;63210;53.370;6.770;2023-04-24T02:44:17;3.90;;;3.60;;
48849;SDS011;63210;53.370;6.770;2023-04-24T02:46:43;4.67;;;4.17;;
48849;SDS011;63210;53.370;6.770;2023-04-24T02:49:08;4.57;;;4.18;;
48849;SDS011;63210;53.370;6.770;2023-04-24T02:51:33;5.15;;;4.68;;
48849;SDS011;63210;53.370;6.770;2023-04-24T02:53:59;4.90;;;4.50;;
48849;SDS011;63210;53.370;6.770;2023-04-24T02:56:24;5.68;;;4.63;;
48849;SDS011;63210;53.370;6.770;2023-04-24T02:58:49;6.82;;;5.10;;
48849;SDS011;63210;53.370;6.770;2023-04-24T03:01:15;6.57;;;5.18;;
48849;SDS011;63210;53.370;6.770;2023-04-24T03:03:40;5.35;;;4.85;;
48849;SDS011;63210;53.370;6.770;2023-04-24T03:06:05;5.47;;;4.97;;
48849;SDS011;63210;53.370;6.770;2023-04-24T03:08:34;6.03;;;5.53;;
48849;SDS011;63210;53.370;6.770;2023-04-24T03:10:59;6.15;;;5.63;;
48849;SDS011;63210;53.370;6.770;2023-04-24T03:13:25;5.72;;;5.22;;
48849;SDS011;63210;53.370;6.770;2023-04-24T03:15:50;6.75;;;5.63;;
48849;SDS011;63210;53.370;6.770;2023-04-24T03:18:15;7.22;;;6.53;;
48849;SDS011;63210;53.370;6.770;2023-04-24T03:20:40;8.40;;;7.60;;
48849;SDS011;63210;53.370;6.770;2023-04-24T03:23:06;7.28;;;6.57;;
48849;SDS011;63210;53.370;6.770;2023-04-24T03:25:31;8.45;;;7.38;;
48849;SDS011;63210;53.370;6.770;2023-04-24T03:27:56;8.85;;;7.50;;
48849;SDS011;63210;53.370;6.770;2023-04-24T03:30:22;9.45;;;7.55;;
48849;SDS011;63210;53.370;6.770;2023-04-24T03:32:47;8.20;;;7.40;;
48849;SDS011;63210;53.370;6.770;2023-04-24T03:35:12;9.38;;;8.40;;
48849;SDS011;63210;53.370;6.770;2023-04-24T03:37:40;9.23;;;7.82;;
48849;SDS011;63210;53.370;6.770;2023-04-24T03:40:05;8.38;;;7.57;;
48849;SDS011;63210;53.370;6.770;2023-04-24T03:42:32;8.75;;;7.85;;
48849;SDS011;63210;53.370;6.770;2023-04-24T03:44:57;9.15;;;7.28;;
48849;SDS011;63210;53.370;6.770;2023-04-24T03:47:22;9.38;;;8.45;;
48849;SDS011;63210;53.370;6.770;2023-04-24T03:49:48;9.40;;;8.23;;
48849;SDS011;63210;53.370;6.770;2023-04-24T03:52:13;8.98;;;8.07;;
48849;SDS011;63210;53.370;6.770;2023-04-24T03:54:38;8.82;;;7.22;;
48849;SDS011;63210;53.370;6.770;2023-04-24T03:57:03;11.40;;;9.47;;
48849;SDS011;63210;53.370;6.770;2023-04-24T03:59:29;9.55;;;8.55;;
48849;SDS011;63210;53.370;6.770;2023-04-24T04:01:55;10.02;;;9.02;;
48849;SDS011;63210;53.370;6.770;2023-04-24T04:04:20;11.95;;;10.60;;
48849;SDS011;63210;53.370;6.770;2023-04-24T04:06:45;11.23;;;9.88;;
48849;SDS011;63210;53.370;6.770;2023-04-24T04:09:11;10.40;;;9.32;;
48849;SDS011;63210;53.370;6.770;2023-04-24T04:11:37;12.55;;;10.40;;
48849;SDS011;63210;53.370;6.770;2023-04-24T04:14:02;12.07;;;10.23;;
48849;SDS011;63210;53.370;6.770;2023-04-24T04:16:27;13.75;;;10.88;;
48849;SDS011;63210;53.370;6.770;2023-04-24T04:18:53;12.95;;;10.27;;
48849;SDS011;63210;53.370;6.770;2023-04-24T04:21:18;11.30;;;10.10;;
48849;SDS011;63210;53.370;6.770;2023-04-24T04:23:43;11.32;;;10.00;;
48849;SDS011;63210;53.370;6.770;2023-04-24T04:26:09;12.73;;;9.90;;
48849;SDS011;63210;53.370;6.770;2023-04-24T04:28:34;15.18;;;11.38;;
48849;SDS011;63210;53.370;6.770;2023-04-24T04:30:59;15.40;;;12.88;;
48849;SDS011;63210;53.370;6.770;2023-04-24T04:33:26;16.00;;;13.82;;
48849;SDS011;63210;53.370;6.770;2023-04-24T04:35:51;17.20;;;12.88;;
48849;SDS011;63210;53.370;6.770;2023-04-24T04:38:17;19.05;;;16.33;;
48849;SDS011;63210;53.370;6.770;2023-04-24T04:40:43;20.35;;;16.30;;
48849;SDS011;63210;53.370;6.770;2023-04-24T04:43:08;24.48;;;17.58;;
48849;SDS011;63210;53.370;6.770;2023-04-24T04:45:35;20.27;;;17.73;;
48849;SDS011;63210;53.370;6.770;2023-04-24T04:48:00;19.52;;;16.52;;
48849;SDS011;63210;53.370;6.770;2023-04-24T04:50:27;23.25;;;19.25;;
48849;SDS011;63210;53.370;6.770;2023-04-24T04:52:52;20.85;;;16.55;;
48849;SDS011;63210;53.370;6.770;2023-04-24T04:55:17;23.58;;;17.17;;
48849;SDS011;63210;53.370;6.770;2023-04-24T04:57:44;17.38;;;15.23;;
48849;SDS011;63210;53.370;6.770;2023-04-24T05:00:10;21.25;;;18.25;;
48849;SDS011;63210;53.370;6.770;2023-04-24T05:02:36;20.88;;;17.70;;
48849;SDS011;63210;53.370;6.770;2023-04-24T05:05:02;20.67;;;16.67;;
48849;SDS011;63210;53.370;6.770;2023-04-24T05:07:27;25.05;;;17.90;;
48849;SDS011;63210;53.370;6.770;2023-04-24T05:09:52;20.73;;;16.17;;
48849;SDS011;63210;53.370;6.770;2023-04-24T05:12:17;18.70;;;16.17;;
48849;SDS011;63210;53.370;6.770;2023-04-24T05:14:43;21.17;;;17.83;;
48849;SDS011;63210;53.370;6.770;2023-04-24T05:17:08;17.93;;;15.73;;
48849;SDS011;63210;53.370;6.770;2023-04-24T05:19:33;15.67;;;13.37;;
48849;SDS011;63210;53.370;6.770;2023-04-24T05:22:01;18.10;;;14.18;;
48849;SDS011;63210;53.370;6.770;2023-04-24T05:24:28;16.10;;;12.52;;
48849;SDS011;63210;53.370;6.770;2023-04-24T05:26:56;16.55;;;12.57;;
48849;SDS011;63210;53.370;6.770;2023-04-24T05:29:23;18.08;;;12.30;;
48849;SDS011;63210;53.370;6.770;2023-04-24T05:31:49;15.00;;;10.27;;
48849;SDS011;63210;53.370;6.770;2023-04-24T05:34:14;16.13;;;9.57;;
48849;SDS011;63210;53.370;6.770;2023-04-24T05:36:41;12.38;;;8.23;;
48849;SDS011;63210;53.370;6.770;2023-04-24T05:39:07;11.50;;;8.48;;
48849;SDS011;63210;53.370;6.770;2023-04-24T05:41:33;10.50;;;7.55;;
48849;SDS011;63210;53.370;6.770;2023-04-24T05:43:58;10.35;;;6.57;;
48849;SDS011;63210;53.370;6.770;2023-04-24T05:46:23;11.18;;;6.30;;
48849;SDS011;63210;53.370;6.770;2023-04-24T05:48:48;8.00;;;6.00;;
48849;SDS011;63210;53.370;6.770;2023-04-24T05:51:14;9.50;;;6.03;;
48849;SDS011;63210;53.370;6.770;2023-04-24T05:53:39;8.60;;;6.68;;
48849;SDS011;63210;53.370;6.770;2023-04-24T05:56:06;10.32;;;6.50;;
48849;SDS011;63210;53.370;6.770;2023-04-24T05:58:31;7.28;;;5.22;;
48849;SDS011;63210;53.370;6.770;2023-04-24T06:00:56;7.40;;;5.88;;
48849;SDS011;63210;53.370;6.770;2023-04-24T06:03:23;7.88;;;5.78;;
48849;SDS011;63210;53.370;6.770;2023-04-24T06:05:49;7.78;;;5.80;;
48849;SDS011;63210;53.370;6.770;2023-04-24T06:08:15;6.60;;;5.43;;
48849;SDS011;63210;53.370;6.770;2023-04-24T06:10:40;7.65;;;5.45;;
48849;SDS011;63210;53.370;6.770;2023-04-24T06:13:06;6.68;;;5.10;;
48849;SDS011;63210;53.370;6.770;2023-04-24T06:15:31;7.72;;;5.70;;
48849;SDS011;63210;53.370;6.770;2023-04-24T06:17:57;7.18;;;5.22;;
48849;SDS011;63210;53.370;6.770;2023-04-24T06:20:22;8.80;;;6.40;;
48849;SDS011;63210;53.370;6.770;2023-04-24T06:22:47;7.22;;;6.25;;
48849;SDS011;63210;53.370;6.770;2023-04-24T06:25:13;10.05;;;6.97;;
48849;SDS011;63210;53.370;6.770;2023-04-24T06:27:38;12.48;;;6.97;;
48849;SDS011;63210;53.370;6.770;2023-04-24T06:30:04;9.40;;;6.80;;
48849;SDS011;63210;53.370;6.770;2023-04-24T06:32:29;8.85;;;6.55;;
48849;SDS011;63210;53.370;6.770;2023-04-24T06:34:55;9.10;;;6.65;;
48849;SDS011;63210;53.370;6.770;2023-04-24T06:37:21;8.88;;;6.47;;
48849;SDS011;63210;53.370;6.770;2023-04-24T06:39:46;10.85;;;7.28;;
48849;SDS011;63210;53.370;6.770;2023-04-24T06:42:11;8.10;;;6.70;;
48849;SDS011;63210;53.370;6.770;2023-04-24T06:44:37;8.40;;;6.72;;
48849;SDS011;63210;53.370;6.770;2023-04-24T06:47:09;10.15;;;7.45;;
48849;SDS011;63210;53.370;6.770;2023-04-24T06:49:35;11.88;;;7.28;;
48849;SDS011;63210;53.370;6.770;2023-04-24T06:52:00;11.13;;;7.63;;
48849;SDS011;63210;53.370;6.770;2023-04-24T06:54:26;8.63;;;7.10;;
48849;SDS011;63210;53.370;6.770;2023-04-24T06:56:51;13.00;;;6.78;;
48849;SDS011;63210;53.370;6.770;2023-04-24T06:59:17;8.30;;;6.25;;
48849;SDS011;63210;53.370;6.770;2023-04-24T07:01:42;5.38;;;4.57;;
48849;SDS011;63210;53.370;6.770;2023-04-24T07:04:07;5.63;;;3.78;;
48849;SDS011;63210;53.370;6.770;2023-04-24T07:06:33;6.03;;;3.95;;
48849;SDS011;63210;53.370;6.770;2023-04-24T07:08:58;4.78;;;3.90;;
48849;SDS011;63210;53.370;6.770;2023-04-24T07:11:25;4.75;;;3.17;;
48849;SDS011;63210;53.370;6.770;2023-04-24T07:13:54;4.13;;;3.25;;
48849;SDS011;63210;53.370;6.770;2023-04-24T07:16:20;3.83;;;3.28;;
48849;SDS011;63210;53.370;6.770;2023-04-24T07:18:45;3.42;;;3.10;;
48849;SDS011;63210;53.370;6.770;2023-04-24T07:21:10;3.03;;;2.53;;
48849;SDS011;63210;53.370;6.770;2023-04-24T07:23:36;4.55;;;3.30;;
48849;SDS011;63210;53.370;6.770;2023-04-24T07:26:01;4.75;;;3.80;;
48849;SDS011;63210;53.370;6.770;2023-04-24T07:28:27;5.43;;;3.50;;
48849;SDS011;63210;53.370;6.770;2023-04-24T07:30:56;4.88;;;3.67;;
48849;SDS011;63210;53.370;6.770;2023-04-24T07:33:21;5.05;;;4.15;;
48849;SDS011;63210;53.370;6.770;2023-04-24T07:35:49;5.82;;;2.90;;
48849;SDS011;63210;53.370;6.770;2023-04-24T07:38:18;6.43;;;2.67;;
48849;SDS011;63210;53.370;6.770;2023-04-24T07:40:47;6.07;;;2.70;;
48849;SDS011;63210;53.370;6.770;2023-04-24T07:43:15;5.35;;;2.80;;
48849;SDS011;63210;53.370;6.770;2023-04-24T07:45:41;5.95;;;3.83;;
48849;SDS011;63210;53.370;6.770;2023-04-24T07:48:06;3.40;;;2.47;;
48849;SDS011;63210;53.370;6.770;2023-04-24T07:50:33;4.35;;;1.70;;
48849;SDS011;63210;53.370;6.770;2023-04-24T07:52:59;3.63;;;2.10;;
48849;SDS011;63210;53.370;6.770;2023-04-24T07:55:25;4.55;;;2.20;;
48849;SDS011;63210;53.370;6.770;2023-04-24T07:57:50;7.05;;;2.60;;
48849;SDS011;63210;53.370;6.770;2023-04-24T08:00:16;7.15;;;3.17;;
48849;SDS011;63210;53.370;6.770;2023-04-24T08:02:41;4.97;;;3.47;;
48849;SDS011;63210;53.370;6.770;2023-04-24T08:05:07;7.15;;;3.90;;
48849;SDS011;63210;53.370;6.770;2023-04-24T08:07:32;8.20;;;3.47;;
48849;SDS011;63210;53.370;6.770;2023-04-24T08:09:58;8.13;;;4.35;;
48849;SDS011;63210;53.370;6.770;2023-04-24T08:12:24;10.98;;;5.28;;
48849;SDS011;63210;53.370;6.770;2023-04-24T08:14:49;8.73;;;4.18;;
48849;SDS011;63210;53.370;6.770;2023-04-24T08:17:16;7.28;;;3.50;;
48849;SDS011;63210;53.370;6.770;2023-04-24T08:19:41;8.30;;;4.78;;
48849;SDS011;63210;53.370;6.770;2023-04-24T08:22:13;7.65;;;4.38;;
48849;SDS011;63210;53.370;6.770;2023-04-24T08:24:39;9.50;;;4.57;;
48849;SDS011;63210;53.370;6.770;2023-04-24T08:27:04;8.57;;;5.38;;
48849;SDS011;63210;53.370;6.770;2023-04-24T08:29:30;8.27;;;5.30;;
48849;SDS011;63210;53.370;6.770;2023-04-24T08:31:55;10.90;;;6.55;;
48849;SDS011;63210;53.370;6.770;2023-04-24T08:34:21;12.60;;;7.35;;
48849;SDS011;63210;53.370;6.770;2023-04-24T08:36:46;12.73;;;8.07;;
48849;SDS011;63210;53.370;6.770;2023-04-24T08:39:12;17.35;;;9.43;;
48849;SDS011;63210;53.370;6.770;2023-04-24T08:41:37;22.35;;;12.85;;
48849;SDS011;63210;53.370;6.770;2023-04-24T08:44:03;27.15;;;15.10;;
48849;SDS011;63210;53.370;6.770;2023-04-24T08:46:29;25.65;;;16.05;;
48849;SDS011;63210;53.370;6.770;2023-04-24T08:48:55;25.58;;;14.38;;
48849;SDS011;63210;53.370;6.770;2023-04-24T08:51:21;26.13;;;14.43;;
48849;SDS011;63210;53.370;6.770;2023-04-24T08:53:46;31.17;;;16.73;;
48849;SDS011;63210;53.370;6.770;2023-04-24T08:56:12;25.17;;;14.35;;
48849;SDS011;63210;53.370;6.770;2023-04-24T08:58:38;21.92;;;13.25;;
48849;SDS011;63210;53.370;6.770;2023-04-24T09:01:03;22.30;;;12.52;;
48849;SDS011;63210;53.370;6.770;2023-04-24T09:03:29;18.63;;;11.32;;
48849;SDS011;63210;53.370;6.770;2023-04-24T09:05:56;19.80;;;9.35;;
48849;SDS011;63210;53.370;6.770;2023-04-24T09:08:23;28.85;;;12.57;;
48849;SDS011;63210;53.370;6.770;2023-04-24T09:10:49;17.80;;;11.10;;
48849;SDS011;63210;53.370;6.770;2023-04-24T09:13:14;30.05;;;13.55;;
48849;SDS011;63210;53.370;6.770;2023-04-24T09:15:40;19.42;;;12.07;;
48849;SDS011;63210;53.370;6.770;2023-04-24T09:18:05;21.55;;;11.00;;
48849;SDS011;63210;53.370;6.770;2023-04-24T09:20:31;25.13;;;13.82;;
48849;SDS011;63210;53.370;6.770;2023-04-24T09:22:57;19.48;;;10.63;;
48849;SDS011;63210;53.370;6.770;2023-04-24T09:25:24;16.63;;;11.98;;
48849;SDS011;63210;53.370;6.770;2023-04-24T09:27:53;19.60;;;12.77;;
48849;SDS011;63210;53.370;6.770;2023-04-24T09:30:20;18.70;;;12.00;;
48849;SDS011;63210;53.370;6.770;2023-04-24T09:32:46;16.85;;;10.38;;
48849;SDS011;63210;53.370;6.770;2023-04-24T09:35:12;15.57;;;8.10;;
48849;SDS011;63210;53.370;6.770;2023-04-24T09:37:38;19.25;;;8.40;;
48849;SDS011;63210;53.370;6.770;2023-04-24T09:40:11;15.98;;;8.32;;
48849;SDS011;63210;53.370;6.770;2023-04-24T09:42:37;15.32;;;7.70;;
48849;SDS011;63210;53.370;6.770;2023-04-24T09:45:03;12.73;;;7.78;;
48849;SDS011;63210;53.370;6.770;2023-04-24T09:47:38;14.63;;;8.27;;
48849;SDS011;63210;53.370;6.770;2023-04-24T09:50:13;18.52;;;8.80;;
48849;SDS011;63210;53.370;6.770;2023-04-24T09:52:58;12.77;;;7.07;;
48849;SDS011;63210;53.370;6.770;2023-04-24T09:55:26;10.93;;;6.93;;
48849;SDS011;63210;53.370;6.770;2023-04-24T09:57:56;14.10;;;7.60;;
48849;SDS011;63210;53.370;6.770;2023-04-24T10:00:25;18.17;;;8.65;;
48849;SDS011;63210;53.370;6.770;2023-04-24T10:02:54;17.80;;;8.10;;
48849;SDS011;63210;53.370;6.770;2023-04-24T10:05:19;12.32;;;7.95;;
48849;SDS011;63210;53.370;6.770;2023-04-24T10:07:47;16.50;;;8.45;;
48849;SDS011;63210;53.370;6.770;2023-04-24T10:10:13;15.45;;;8.48;;
48849;SDS011;63210;53.370;6.770;2023-04-24T10:12:38;14.43;;;6.30;;
48849;SDS011;63210;53.370;6.770;2023-04-24T10:15:04;17.13;;;7.13;;
48849;SDS011;63210;53.370;6.770;2023-04-24T10:17:30;16.38;;;6.40;;
48849;SDS011;63210;53.370;6.770;2023-04-24T10:19:56;14.57;;;5.35;;
48849;SDS011;63210;53.370;6.770;2023-04-24T10:22:22;18.45;;;5.45;;
48849;SDS011;63210;53.370;6.770;2023-04-24T10:24:47;13.48;;;6.28;;
48849;SDS011;63210;53.370;6.770;2023-04-24T10:27:14;10.68;;;5.97;;
48849;SDS011;63210;53.370;6.770;2023-04-24T10:29:40;12.23;;;5.45;;
48849;SDS011;63210;53.370;6.770;2023-04-24T10:32:06;10.20;;;4.82;;
48849;SDS011;63210;53.370;6.770;2023-04-24T10:34:32;11.63;;;4.47;;
48849;SDS011;63210;53.370;6.770;2023-04-24T10:36:57;10.15;;;5.07;;
48849;SDS011;63210;53.370;6.770;2023-04-24T10:39:22;9.13;;;3.88;;
48849;SDS011;63210;53.370;6.770;2023-04-24T10:41:48;14.35;;;5.57;;
48849;SDS011;63210;53.370;6.770;2023-04-24T10:44:14;8.52;;;4.40;;
48849;SDS011;63210;53.370;6.770;2023-04-24T10:46:43;14.57;;;6.38;;
48849;SDS011;63210;53.370;6.770;2023-04-24T10:49:09;15.68;;;5.18;;
48849;SDS011;63210;53.370;6.770;2023-04-24T10:51:45;13.75;;;5.20;;
48849;SDS011;63210;53.370;6.770;2023-04-24T10:54:23;15.98;;;4.90;;
48849;SDS011;63210;53.370;6.770;2023-04-24T10:56:49;13.55;;;4.53;;
48849;SDS011;63210;53.370;6.770;2023-04-24T10:59:23;12.23;;;4.40;;
48849;SDS011;63210;53.370;6.770;2023-04-24T11:01:53;9.10;;;3.78;;
48849;SDS011;63210;53.370;6.770;2023-04-24T11:04:28;7.32;;;3.65;;
48849;SDS011;63210;53.370;6.770;2023-04-24T11:06:54;10.07;;;4.03;;
48849;SDS011;63210;53.370;6.770;2023-04-24T11:09:26;11.02;;;3.90;;
48849;SDS011;63210;53.370;6.770;2023-04-24T11:11:51;8.10;;;4.68;;
48849;SDS011;63210;53.370;6.770;2023-04-24T11:14:27;11.52;;;4.53;;
48849;SDS011;63210;53.370;6.770;2023-04-24T11:16:53;12.63;;;3.55;;
48849;SDS011;63210;53.370;6.770;2023-04-24T11:19:24;15.90;;;5.05;;
48849;SDS011;63210;53.370;6.770;2023-04-24T11:21:59;9.13;;;3.28;;
48849;SDS011;63210;53.370;6.770;2023-04-24T11:24:50;8.63;;;3.30;;
48849;SDS011;63210;53.370;6.770;2023-04-24T11:27:19;7.88;;;2.72;;
48849;SDS011;63210;53.370;6.770;2023-04-24T11:32:17;10.57;;;2.78;;
48849;SDS011;63210;53.370;6.770;2023-04-24T11:34:47;5.53;;;2.53;;
48849;SDS011;63210;53.370;6.770;2023-04-24T11:37:13;9.77;;;2.53;;
48849;SDS011;63210;53.370;6.770;2023-04-24T11:39:38;11.68;;;2.50;;
48849;SDS011;63210;53.370;6.770;2023-04-24T11:42:03;9.32;;;2.42;;
48849;SDS011;63210;53.370;6.770;2023-04-24T11:44:31;8.05;;;2.53;;
48849;SDS011;63210;53.370;6.770;2023-04-24T11:46:59;8.05;;;2.58;;
48849;SDS011;63210;53.370;6.770;2023-04-24T11:49:24;7.57;;;1.90;;
48849;SDS011;63210;53.370;6.770;2023-04-24T11:51:50;10.07;;;2.30;;
48849;SDS011;63210;53.370;6.770;2023-04-24T11:54:15;6.55;;;2.00;;
48849;SDS011;63210;53.370;6.770;2023-04-24T11:56:44;8.90;;;2.55;;
48849;SDS011;63210;53.370;6.770;2023-04-24T11:59:10;11.07;;;3.45;;
48849;SDS011;63210;53.370;6.770;2023-04-24T12:04:10;8.75;;;1.92;;
48849;SDS011;63210;53.370;6.770;2023-04-24T12:06:39;8.70;;;3.53;;
48849;SDS011;63210;53.370;6.770;2023-04-24T12:09:04;7.03;;;1.90;;
48849;SDS011;63210;53.370;6.770;2023-04-24T12:11:32;7.82;;;2.08;;
48849;SDS011;63210;53.370;6.770;2023-04-24T12:13:57;4.63;;;1.58;;
48849;SDS011;63210;53.370;6.770;2023-04-24T12:16:34;8.20;;;1.70;;
48849;SDS011;63210;53.370;6.770;2023-04-24T12:18:59;10.23;;;1.73;;
48849;SDS011;63210;53.370;6.770;2023-04-24T12:21:25;8.35;;;1.90;;
48849;SDS011;63210;53.370;6.770;2023-04-24T12:23:55;6.00;;;1.55;;
48849;SDS011;63210;53.370;6.770;2023-04-24T12:26:23;4.75;;;2.75;;
48849;SDS011;63210;53.370;6.770;2023-04-24T12:28:48;7.85;;;1.88;;
48849;SDS011;63210;53.370;6.770;2023-04-24T12:31:14;6.13;;;1.67;;
48849;SDS011;63210;53.370;6.770;2023-04-24T12:33:40;6.57;;;1.95;;
48849;SDS011;63210;53.370;6.770;2023-04-24T12:36:14;5.85;;;1.77;;
48849;SDS011;63210;53.370;6.770;2023-04-24T12:38:43;5.35;;;1.83;;
48849;SDS011;63210;53.370;6.770;2023-04-24T12:41:11;8.75;;;2.05;;
48849;SDS011;63210;53.370;6.770;2023-04-24T12:43:36;6.57;;;1.65;;
48849;SDS011;63210;53.370;6.770;2023-04-24T12:46:01;9.82;;;1.63;;
48849;SDS011;63210;53.370;6.770;2023-04-24T12:48:27;8.60;;;2.38;;
48849;SDS011;63210;53.370;6.770;2023-04-24T12:50:53;9.30;;;2.53;;
48849;SDS011;63210;53.370;6.770;2023-04-24T12:53:21;10.27;;;2.00;;
48849;SDS011;63210;53.370;6.770;2023-04-24T12:55:46;8.38;;;1.30;;
48849;SDS011;63210;53.370;6.770;2023-04-24T12:58:20;5.18;;;1.67;;
48849;SDS011;63210;53.370;6.770;2023-04-24T13:00:51;3.78;;;1.40;;
48849;SDS011;63210;53.370;6.770;2023-04-24T13:03:17;5.50;;;1.48;;
48849;SDS011;63210;53.370;6.770;2023-04-24T13:05:43;6.88;;;1.50;;
48849;SDS011;63210;53.370;6.770;2023-04-24T13:08:08;9.68;;;1.52;;
48849;SDS011;63210;53.370;6.770;2023-04-24T13:10:34;7.20;;;1.30;;
48849;SDS011;63210;53.370;6.770;2023-04-24T13:12:59;5.82;;;1.80;;
48849;SDS011;63210;53.370;6.770;2023-04-24T13:15:24;6.90;;;1.60;;
48849;SDS011;63210;53.370;6.770;2023-04-24T13:17:53;4.82;;;1.38;;
48849;SDS011;63210;53.370;6.770;2023-04-24T13:20:18;6.43;;;1.83;;
48849;SDS011;63210;53.370;6.770;2023-04-24T13:22:43;4.63;;;1.15;;
48849;SDS011;63210;53.370;6.770;2023-04-24T13:25:09;9.95;;;1.42;;
48849;SDS011;63210;53.370;6.770;2023-04-24T13:27:35;8.10;;;1.50;;
48849;SDS011;63210;53.370;6.770;2023-04-24T13:30:00;6.78;;;1.30;;
48849;SDS011;63210;53.370;6.770;2023-04-24T13:32:25;6.35;;;1.63;;
48849;SDS011;63210;53.370;6.770;2023-04-24T13:34:51;7.75;;;1.45;;
48849;SDS011;63210;53.370;6.770;2023-04-24T13:37:17;6.63;;;1.20;;
48849;SDS011;63210;53.370;6.770;2023-04-24T13:39:42;7.43;;;1.38;;
48849;SDS011;63210;53.370;6.770;2023-04-24T13:42:08;3.92;;;1.10;;
48849;SDS011;63210;53.370;6.770;2023-04-24T13:44:33;5.45;;;1.00;;
48849;SDS011;63210;53.370;6.770;2023-04-24T13:47:01;6.57;;;1.30;;
48849;SDS011;63210;53.370;6.770;2023-04-24T13:49:30;7.80;;;1.63;;
48849;SDS011;63210;53.370;6.770;2023-04-24T13:51:56;3.42;;;1.15;;
48849;SDS011;63210;53.370;6.770;2023-04-24T13:54:21;7.40;;;1.60;;
48849;SDS011;63210;53.370;6.770;2023-04-24T13:56:48;9.00;;;1.70;;
48849;SDS011;63210;53.370;6.770;2023-04-24T13:59:13;12.68;;;1.50;;
48849;SDS011;63210;53.370;6.770;2023-04-24T14:01:38;5.65;;;1.45;;
48849;SDS011;63210;53.370;6.770;2023-04-24T14:04:04;4.68;;;1.30;;
48849;SDS011;63210;53.370;6.770;2023-04-24T14:06:29;5.50;;;1.30;;
48849;SDS011;63210;53.370;6.770;2023-04-24T14:08:54;3.85;;;1.10;;
48849;SDS011;63210;53.370;6.770;2023-04-24T14:11:20;5.88;;;1.55;;
48849;SDS011;63210;53.370;6.770;2023-04-24T14:13:45;5.93;;;1.15;;
48849;SDS011;63210;53.370;6.770;2023-04-24T14:16:11;4.40;;;1.20;;
48849;SDS011;63210;53.370;6.770;2023-04-24T14:18:36;3.78;;;1.35;;
48849;SDS011;63210;53.370;6.770;2023-04-24T14:21:02;2.47;;;1.48;;
48849;SDS011;63210;53.370;6.770;2023-04-24T14:23:28;5.00;;;1.45;;
48849;SDS011;63210;53.370;6.770;2023-04-24T14:25:53;4.32;;;1.50;;
48849;SDS011;63210;53.370;6.770;2023-04-24T14:28:19;3.23;;;1.60;;
48849;SDS011;63210;53.370;6.770;2023-04-24T14:30:45;10.13;;;2.00;;
48849;SDS011;63210;53.370;6.770;2023-04-24T14:33:10;6.63;;;2.22;;
48849;SDS011;63210;53.370;6.770;2023-04-24T14:35:37;4.50;;;1.90;;
48849;SDS011;63210;53.370;6.770;2023-04-24T14:38:02;6.18;;;2.15;;
48849;SDS011;63210;53.370;6.770;2023-04-24T14:40:27;5.60;;;2.20;;